Time;durP1;ratioP1;P1;durP2;ratioP2;P2;SDS_P1;SDS_P2;PMS_P1;PMS_P2;Temp;Humidity;BMP_temperature;BMP_pressure;BME280_temperature;BME280_humidity;BME280_pressure;Samples;Min_cycle;Max_cycle;Signal;HPM_P1;HPM_P2
2023/05/17 00:02:06;;;;;;;4.63;0.83;;;9.20;99.90;;;;;;4981108;28;21174;-84
2023/05/17 00:04:32;;;;;;;0.80;0.80;;;9.20;99.90;;;;;;4997876;28;20230;-82
2023/05/17 00:06:58;;;;;;;0.80;0.40;;;9.20;99.90;;;;;;4981510;28;20298;-82
2023/05/17 00:09:24;;;;;;;0.63;0.63;;;9.20;99.90;;;;;;4998655;28;20215;-83
2023/05/17 00:11:49;;;;;;;8.00;1.57;;;9.20;99.90;;;;;;4981442;28;20223;-82
2023/05/17 00:14:15;;;;;;;0.40;0.27;;;9.30;99.90;;;;;;4980581;28;20265;-83
2023/05/17 00:16:41;;;;;;;2.33;2.20;;;9.30;99.90;;;;;;4984098;28;20589;-83
2023/05/17 00:19:08;;;;;;;0.83;0.77;;;9.40;99.90;;;;;;4967438;28;20267;-82
2023/05/17 00:21:34;;;;;;;0.60;0.60;;;9.30;99.90;;;;;;5029636;28;20195;-82
2023/05/17 00:24:00;;;;;;;0.50;0.50;;;9.20;99.90;;;;;;4966348;28;20193;-83
2023/05/17 00:26:26;;;;;;;0.47;0.47;;;9.10;99.90;;;;;;4966030;28;20259;-83
2023/05/17 00:28:52;;;;;;;0.30;0.30;;;9.10;99.90;;;;;;4966905;28;20247;-84
2023/05/17 00:31:18;;;;;;;4.43;0.90;;;9.10;99.90;;;;;;4996980;28;20699;-84
2023/05/17 00:33:43;;;;;;;0.80;0.73;;;9.10;99.90;;;;;;4997389;28;20235;-84
2023/05/17 00:36:09;;;;;;;5.50;1.23;;;9.20;99.90;;;;;;4997928;28;20195;-84
2023/05/17 00:38:35;;;;;;;0.30;0.30;;;9.20;99.90;;;;;;4965854;28;20223;-83
2023/05/17 00:41:00;;;;;;;0.60;0.60;;;9.30;99.90;;;;;;4997718;28;20909;-83
2023/05/17 00:43:26;;;;;;;0.20;0.20;;;9.40;99.90;;;;;;4981187;28;20211;-84
2023/05/17 00:45:52;;;;;;;1.20;1.10;;;9.40;99.90;;;;;;4997286;28;20294;-84
2023/05/17 00:48:19;;;;;;;0.97;0.97;;;9.40;99.90;;;;;;4997263;28;20260;-83
2023/05/17 00:50:46;;;;;;;0.87;0.87;;;9.40;99.90;;;;;;4999502;28;20241;-84
2023/05/17 00:53:15;;;;;;;0.77;0.73;;;9.40;99.90;;;;;;4998496;28;20218;-84
2023/05/17 00:55:44;;;;;;;6.30;2.67;;;9.40;99.90;;;;;;5001847;28;20223;-83
2023/05/17 00:58:11;;;;;;;2.87;1.03;;;9.50;99.90;;;;;;5033555;28;20781;-83
2023/05/17 01:00:37;;;;;;;3.20;0.67;;;9.60;99.90;;;;;;5000174;28;20199;-84
2023/05/17 01:03:03;;;;;;;1.33;0.40;;;9.70;99.90;;;;;;4965762;28;20191;-85
2023/05/17 01:05:29;;;;;;;0.30;0.30;;;9.80;99.90;;;;;;4981451;28;20736;-84
2023/05/17 01:07:55;;;;;;;7.03;1.73;;;9.80;99.90;;;;;;4981149;28;20717;-84
2023/05/17 01:10:36;;;;;;;1.60;1.50;;;9.70;99.90;;;;;;4980309;28;20226;-84
2023/05/17 01:13:18;;;;;;;0.33;0.33;;;9.60;99.90;;;;;;4997355;28;20244;-83
2023/05/17 01:16:30;;;;;;;0.20;0.20;;;9.60;99.90;;;;;;4982567;28;20231;-83
2023/05/17 01:19:18;;;;;;;2.00;1.87;;;9.50;99.90;;;;;;4974217;28;20866;-83
2023/05/17 01:22:05;;;;;;;0.40;0.40;;;9.50;99.90;;;;;;4979993;28;20195;-84
2023/05/17 01:24:40;;;;;;;0.20;0.20;;;9.40;99.90;;;;;;4980619;28;20724;-83
2023/05/17 01:27:08;;;;;;;0.20;0.20;;;9.40;99.90;;;;;;4981610;28;21095;-82
2023/05/17 01:29:35;;;;;;;4.90;0.97;;;9.40;99.90;;;;;;4965190;28;20232;-84
2023/05/17 01:32:03;;;;;;;0.50;0.50;;;9.50;99.90;;;;;;4964023;28;20246;-84
2023/05/17 01:34:29;;;;;;;0.83;0.80;;;9.40;99.90;;;;;;4981624;28;20787;-84
2023/05/17 01:36:56;;;;;;;0.20;0.20;;;9.40;99.90;;;;;;4964710;28;20314;-83
2023/05/17 01:39:22;;;;;;;7.90;1.00;;;9.40;99.90;;;;;;4982109;28;20204;-83
2023/05/17 01:42:04;;;;;;;0.10;0.10;;;9.30;99.90;;;;;;4964751;28;20227;-82
2023/05/17 01:44:48;;;;;;;2.33;0.63;;;9.30;99.90;;;;;;4981401;28;20224;-84
2023/05/17 01:47:40;;;;;;;6.80;0.73;;;9.30;99.90;;;;;;4980227;28;20228;-83
2023/05/17 01:50:09;;;;;;;0.73;0.40;;;9.20;99.90;;;;;;4980194;28;20216;-85
2023/05/17 01:52:41;;;;;;;0.50;0.50;;;9.00;99.90;;;;;;4980849;28;20316;-83
2023/05/17 01:55:18;;;;;;;1.43;0.70;;;9.00;99.90;;;;;;4980787;28;20303;-84
2023/05/17 01:57:45;;;;;;;3.13;1.13;;;9.00;99.90;;;;;;4982152;28;20549;-83
2023/05/17 02:00:13;;;;;;;0.93;0.50;;;9.10;99.90;;;;;;4964877;28;20307;-85
2023/05/17 02:02:38;;;;;;;0.50;0.50;;;9.00;99.90;;;;;;4981489;28;20755;-84
2023/05/17 02:05:04;;;;;;;0.80;0.80;;;9.00;99.90;;;;;;4964370;28;20215;-84
2023/05/17 02:07:30;;;;;;;3.30;0.77;;;8.90;99.90;;;;;;4981242;28;20246;-85
2023/05/17 02:09:56;;;;;;;0.40;0.40;;;8.90;99.90;;;;;;4986498;28;20233;-83
2023/05/17 02:12:21;;;;;;;1.80;0.47;;;9.00;99.90;;;;;;4964631;28;20246;-83
2023/05/17 02:14:47;;;;;;;1.37;1.30;;;9.10;99.90;;;;;;4981452;28;20476;-82
2023/05/17 02:17:13;;;;;;;0.23;0.23;;;9.10;99.90;;;;;;4980670;28;20216;-84
2023/05/17 02:19:39;;;;;;;4.03;0.53;;;9.10;99.90;;;;;;4979961;28;20217;-84
2023/05/17 02:22:05;;;;;;;0.57;0.53;;;9.20;99.90;;;;;;4981950;28;20220;-81
2023/05/17 02:24:30;;;;;;;0.70;0.70;;;9.20;99.90;;;;;;4948071;28;20551;-83
2023/05/17 02:26:56;;;;;;;1.80;0.80;;;9.30;99.90;;;;;;4973648;28;21151;-84
2023/05/17 02:29:22;;;;;;;0.60;0.60;;;9.40;99.90;;;;;;4959528;28;20962;-83
2023/05/17 02:31:47;;;;;;;23.57;1.03;;;9.40;99.90;;;;;;4978699;28;21082;-82
2023/05/17 02:34:13;;;;;;;1.50;0.50;;;9.40;99.90;;;;;;4969450;28;20215;-84
2023/05/17 02:36:39;;;;;;;13.77;1.50;;;9.30;99.90;;;;;;4982482;28;20558;-85
2023/05/17 02:39:05;;;;;;;0.20;0.20;;;9.30;99.90;;;;;;5000442;28;20199;-83
2023/05/17 02:41:31;;;;;;;0.47;0.47;;;9.30;99.90;;;;;;4998888;28;20245;-84
2023/05/17 02:43:57;;;;;;;3.13;0.30;;;9.30;99.90;;;;;;4982905;28;20227;-82
2023/05/17 02:46:22;;;;;;;0.30;0.30;;;9.20;99.90;;;;;;4998971;28;20215;-84
2023/05/17 02:48:48;;;;;;;0.23;0.23;;;9.20;99.90;;;;;;4982717;28;20223;-85
2023/05/17 02:51:14;;;;;;;1.07;1.03;;;9.10;99.90;;;;;;4999583;28;20191;-82
2023/05/17 02:53:40;;;;;;;0.53;0.53;;;9.10;99.90;;;;;;4982479;28;20630;-83
2023/05/17 02:56:06;;;;;;;0.50;0.50;;;9.10;99.90;;;;;;4967371;28;20237;-84
2023/05/17 02:58:32;;;;;;;0.40;0.37;;;9.20;99.90;;;;;;4982831;28;20227;-85
2023/05/17 03:00:57;;;;;;;0.17;0.17;;;9.20;99.90;;;;;;4999096;28;20734;-84
2023/05/17 03:03:23;;;;;;;0.20;0.20;;;9.20;99.90;;;;;;4983752;28;20199;-84
2023/05/17 03:05:49;;;;;;;0.40;0.40;;;9.20;99.90;;;;;;4982081;28;20219;-84
2023/05/17 03:08:14;;;;;;;6.47;0.80;;;9.20;99.90;;;;;;4999857;28;20342;-83
2023/05/17 03:10:40;;;;;;;0.30;0.30;;;9.20;99.90;;;;;;4998345;28;20265;-85
2023/05/17 03:13:06;;;;;;;3.63;1.20;;;9.20;99.90;;;;;;4998967;28;20227;-84
2023/05/17 03:15:32;;;;;;;0.77;0.63;;;9.20;99.90;;;;;;5015081;28;20231;-84
2023/05/17 03:17:58;;;;;;;0.90;0.73;;;9.20;99.90;;;;;;4977150;28;20205;-85
2023/05/17 03:20:24;;;;;;;0.60;0.60;;;9.10;99.90;;;;;;4968406;28;20247;-83
2023/05/17 03:22:49;;;;;;;6.53;1.57;;;9.20;99.90;;;;;;4968703;28;20243;-84
2023/05/17 03:25:15;;;;;;;0.30;0.30;;;9.20;99.90;;;;;;4963124;28;20255;-83
2023/05/17 03:27:41;;;;;;;0.63;0.63;;;9.10;99.90;;;;;;4978733;28;20347;-84
2023/05/17 03:30:07;;;;;;;0.20;0.20;;;9.10;99.90;;;;;;4967945;28;20189;-83
2023/05/17 03:32:33;;;;;;;1.83;0.87;;;9.10;99.90;;;;;;4966827;28;20248;-84
2023/05/17 03:34:58;;;;;;;0.60;0.60;;;9.00;99.90;;;;;;4960119;28;20228;-83
2023/05/17 03:37:25;;;;;;;0.53;0.53;;;9.10;99.90;;;;;;4969071;28;20219;-83
2023/05/17 03:39:50;;;;;;;0.23;0.23;;;9.00;99.90;;;;;;4977470;28;20228;-83
2023/05/17 03:42:16;;;;;;;0.30;0.30;;;9.00;99.90;;;;;;4964162;28;20192;-83
2023/05/17 03:44:42;;;;;;;5.50;1.17;;;9.00;99.90;;;;;;4960566;28;20629;-84
2023/05/17 03:47:07;;;;;;;0.27;0.27;;;9.00;99.90;;;;;;4965437;28;20581;-83
2023/05/17 03:49:33;;;;;;;1.83;1.73;;;9.00;99.90;;;;;;4981534;28;20235;-84
2023/05/17 03:51:59;;;;;;;0.20;0.20;;;9.00;99.90;;;;;;4998317;28;20247;-85
2023/05/17 03:54:25;;;;;;;0.40;0.40;;;9.00;99.90;;;;;;5001818;28;20265;-84
2023/05/17 03:56:50;;;;;;;2.10;0.37;;;8.90;99.90;;;;;;4981949;28;20233;-84
2023/05/17 03:59:16;;;;;;;0.30;0.30;;;8.80;99.90;;;;;;4980937;28;20226;-82
2023/05/17 04:01:42;;;;;;;0.47;0.47;;;8.80;99.90;;;;;;4998308;28;20233;-82
2023/05/17 04:04:08;;;;;;;0.30;0.30;;;8.80;99.90;;;;;;4998392;28;20223;-84
2023/05/17 04:06:34;;;;;;;2.87;0.70;;;8.80;99.90;;;;;;4981704;28;20187;-84
2023/05/17 04:09:00;;;;;;;1.07;1.07;;;8.80;99.90;;;;;;5000086;28;20223;-83
2023/05/17 04:11:27;;;;;;;0.40;0.40;;;8.90;99.90;;;;;;4997161;28;20306;-84
2023/05/17 04:13:53;;;;;;;0.17;0.17;;;9.00;99.90;;;;;;4997461;28;20266;-83
2023/05/17 04:16:19;;;;;;;1.30;1.13;;;9.10;99.90;;;;;;4997488;28;20211;-85
2023/05/17 04:18:45;;;;;;;1.17;1.10;;;9.10;99.90;;;;;;4997882;28;20910;-82
2023/05/17 04:21:11;;;;;;;1.43;0.60;;;9.20;99.90;;;;;;4999242;28;20198;-83
2023/05/17 04:23:37;;;;;;;4.60;1.00;;;9.20;99.90;;;;;;4970955;28;20744;-84
2023/05/17 04:26:04;;;;;;;3.60;0.47;;;9.30;99.90;;;;;;4973719;28;20215;-84
2023/05/17 04:28:31;;;;;;;1.47;1.17;;;9.30;99.90;;;;;;4999721;28;20245;-82
2023/05/17 04:30:57;;;;;;;2.40;0.40;;;9.40;99.90;;;;;;4985157;28;20227;-84
2023/05/17 04:33:23;;;;;;;1.17;1.10;;;9.40;99.90;;;;;;5001746;28;20301;-84
2023/05/17 04:35:50;;;;;;;0.90;0.83;;;9.40;99.90;;;;;;4985033;28;20328;-83
2023/05/17 04:38:16;;;;;;;0.40;0.40;;;9.40;99.90;;;;;;5001886;28;20233;-84
2023/05/17 04:40:42;;;;;;;7.57;0.83;;;9.40;99.90;;;;;;4968624;28;21018;-85
2023/05/17 04:43:08;;;;;;;0.30;0.30;;;9.40;99.90;;;;;;5003193;28;21034;-84
2023/05/17 04:45:34;;;;;;;0.20;0.20;;;9.40;99.90;;;;;;4999481;28;20345;-84
2023/05/17 04:48:00;;;;;;;0.60;0.60;;;9.50;99.90;;;;;;4964156;28;20703;-84
2023/05/17 04:50:26;;;;;;;9.03;0.83;;;9.50;99.90;;;;;;4971577;28;20221;-84
2023/05/17 04:52:52;;;;;;;3.50;1.00;;;9.60;99.90;;;;;;4982473;28;20231;-82
2023/05/17 04:55:17;;;;;;;0.20;0.20;;;9.60;99.90;;;;;;5004318;28;20220;-84
2023/05/17 04:57:43;;;;;;;1.07;0.77;;;9.60;99.90;;;;;;4982858;28;20590;-85
2023/05/17 05:00:10;;;;;;;1.53;0.57;;;9.60;99.90;;;;;;5002198;28;21044;-82
2023/05/17 05:02:35;;;;;;;0.43;0.43;;;9.70;99.90;;;;;;5000881;28;20274;-82
2023/05/17 05:05:05;;;;;;;0.10;0.10;;;9.80;99.90;;;;;;4988003;28;20792;-83
2023/05/17 05:07:31;;;;;;;0.23;0.23;;;9.80;99.90;;;;;;4971399;28;20643;-84
2023/05/17 05:09:56;;;;;;;3.10;0.60;;;9.80;99.90;;;;;;4976418;28;20234;-84
2023/05/17 05:12:24;;;;;;;7.13;0.70;;;9.70;99.90;;;;;;5002712;28;20192;-84
2023/05/17 05:14:49;;;;;;;1.83;0.87;;;9.60;99.90;;;;;;4973644;28;20239;-83
2023/05/17 05:17:15;;;;;;;2.43;2.30;;;9.60;99.90;;;;;;5001592;28;20220;-83
2023/05/17 05:19:41;;;;;;;0.50;0.50;;;9.60;99.90;;;;;;4986585;28;20219;-84
2023/05/17 05:22:07;;;;;;;0.20;0.20;;;9.50;99.90;;;;;;5000494;28;20759;-83
2023/05/17 05:24:33;;;;;;;1.80;0.80;;;9.60;99.90;;;;;;5017279;28;20194;-84
2023/05/17 05:26:59;;;;;;;1.53;1.23;;;9.70;99.90;;;;;;5001968;28;20191;-86
2023/05/17 05:29:25;;;;;;;0.50;0.50;;;9.70;99.90;;;;;;5001792;28;20227;-84
2023/05/17 05:31:50;;;;;;;0.20;0.20;;;9.80;99.90;;;;;;5033191;28;21181;-80
2023/05/17 05:34:16;;;;;;;2.07;0.77;;;9.70;99.90;;;;;;4984372;28;20307;-84
2023/05/17 05:36:42;;;;;;;2.73;1.77;;;9.80;99.90;;;;;;4983496;28;20248;-87
2023/05/17 05:39:08;;;;;;;1.43;1.33;;;9.80;99.90;;;;;;5031833;28;20215;-85
2023/05/17 05:41:34;;;;;;;0.77;0.77;;;10.90;99.90;;;;;;4982787;28;20219;-85
2023/05/17 05:44:00;;;;;;;0.30;0.30;;;11.70;99.90;;;;;;4998881;28;20241;-82
2023/05/17 05:46:26;;;;;;;0.73;0.73;;;11.30;99.90;;;;;;4982142;28;20219;-82
2023/05/17 05:48:51;;;;;;;1.33;1.13;;;10.80;99.90;;;;;;4999354;28;20235;-83
2023/05/17 05:51:20;;;;;;;0.40;0.40;;;11.50;99.90;;;;;;5000584;28;20672;-84
2023/05/17 05:53:45;;;;;;;1.40;0.70;;;11.00;99.90;;;;;;5032694;28;20310;-83
2023/05/17 05:56:11;;;;;;;2.93;0.67;;;10.50;99.90;;;;;;4967023;28;20276;-82
2023/05/17 05:58:37;;;;;;;2.53;1.50;;;10.40;99.90;;;;;;4982808;28;20265;-83
2023/05/17 06:01:03;;;;;;;1.73;0.67;;;10.40;99.90;;;;;;4998670;28;20219;-83
2023/05/17 06:03:28;;;;;;;0.63;0.60;;;10.60;99.90;;;;;;4998896;28;20283;-82
2023/05/17 06:05:54;;;;;;;3.90;1.17;;;10.30;99.90;;;;;;4966418;28;20249;-83
2023/05/17 06:08:20;;;;;;;0.70;0.70;;;10.30;99.90;;;;;;4981384;28;20313;-84
2023/05/17 06:10:46;;;;;;;1.93;1.63;;;10.10;99.90;;;;;;5016262;28;21051;-81
2023/05/17 06:13:12;;;;;;;1.90;1.17;;;10.00;99.90;;;;;;4983110;28;20239;-83
2023/05/17 06:15:39;;;;;;;0.67;0.40;;;10.70;99.90;;;;;;4999633;28;21100;-84
2023/05/17 06:18:04;;;;;;;0.40;0.40;;;10.70;99.90;;;;;;4983343;28;20193;-82
2023/05/17 06:20:30;;;;;;;0.20;0.20;;;10.80;99.90;;;;;;4996737;28;20215;-81
2023/05/17 06:22:56;;;;;;;3.70;0.80;;;10.20;99.90;;;;;;4966247;28;20219;-83
2023/05/17 06:25:22;;;;;;;0.57;0.57;;;9.90;99.90;;;;;;4983074;28;20298;-83
2023/05/17 06:27:47;;;;;;;0.73;0.73;;;10.00;99.90;;;;;;4999947;28;20691;-82
2023/05/17 06:30:13;;;;;;;1.23;0.73;;;11.30;99.90;;;;;;5016822;28;20191;-85
2023/05/17 06:32:39;;;;;;;0.47;0.47;;;11.80;99.90;;;;;;5016899;28;20277;-83
2023/05/17 06:35:05;;;;;;;0.73;0.50;;;11.20;99.90;;;;;;4999560;28;20227;-83
2023/05/17 06:37:31;;;;;;;4.17;0.90;;;10.90;99.90;;;;;;4983977;28;20226;-84
2023/05/17 06:40:07;;;;;;;0.93;0.93;;;10.60;99.90;;;;;;5000268;28;20214;-82
2023/05/17 06:42:33;;;;;;;0.50;0.50;;;10.60;99.90;;;;;;5031763;28;20560;-83
2023/05/17 06:44:59;;;;;;;0.97;0.60;;;10.80;99.90;;;;;;4985125;28;20196;-84
2023/05/17 06:47:25;;;;;;;0.60;0.60;;;11.00;99.90;;;;;;4984331;28;20227;-81
2023/05/17 06:49:51;;;;;;;0.50;0.50;;;11.00;99.90;;;;;;4976504;28;20230;-83
2023/05/17 06:52:17;;;;;;;0.40;0.40;;;10.80;99.90;;;;;;4969260;28;20212;-81
2023/05/17 06:54:42;;;;;;;1.97;1.60;;;10.70;99.90;;;;;;4967161;28;20203;-81
2023/05/17 06:57:09;;;;;;;1.30;0.80;;;10.60;99.90;;;;;;4981989;28;20288;-82
2023/05/17 06:59:35;;;;;;;2.83;0.60;;;10.50;99.90;;;;;;4995429;28;20261;-84
2023/05/17 07:02:01;;;;;;;0.60;0.60;;;11.00;99.90;;;;;;4972172;28;20696;-81
2023/05/17 07:04:27;;;;;;;1.30;0.83;;;11.10;99.90;;;;;;4985540;28;20216;-82
2023/05/17 07:06:53;;;;;;;0.50;0.47;;;10.90;99.90;;;;;;4966457;28;21044;-82
2023/05/17 07:09:20;;;;;;;1.90;0.60;;;11.00;99.90;;;;;;4983084;28;20306;-82
2023/05/17 07:11:46;;;;;;;0.50;0.37;;;10.70;99.90;;;;;;4998466;28;20306;-81
2023/05/17 07:14:12;;;;;;;1.20;0.63;;;10.70;99.90;;;;;;4998896;28;20668;-82
2023/05/17 07:16:38;;;;;;;7.87;1.93;;;10.90;99.90;;;;;;4981453;28;20225;-83
2023/05/17 07:19:04;;;;;;;0.70;0.70;;;10.90;99.90;;;;;;4998781;28;20226;-81
2023/05/17 07:21:30;;;;;;;0.43;0.43;;;10.90;99.90;;;;;;4998017;28;20285;-82
2023/05/17 07:23:56;;;;;;;0.57;0.57;;;10.80;99.90;;;;;;4999031;28;20215;-81
2023/05/17 07:26:22;;;;;;;0.23;0.23;;;10.70;99.90;;;;;;4965818;28;21199;-82
2023/05/17 07:28:49;;;;;;;1.23;1.13;;;10.60;99.90;;;;;;4998037;28;20601;-82
2023/05/17 07:31:15;;;;;;;1.90;0.77;;;10.50;99.90;;;;;;5000184;28;20593;-83
2023/05/17 07:33:41;;;;;;;2.87;0.63;;;10.60;99.90;;;;;;4982253;28;20394;-82
2023/05/17 07:36:07;;;;;;;2.47;1.00;;;10.50;99.90;;;;;;4983521;28;20199;-82
2023/05/17 07:38:36;;;;;;;4.50;0.50;;;10.50;99.90;;;;;;4967706;28;20299;-82
2023/05/17 07:41:02;;;;;;;8.10;2.60;;;10.20;99.90;;;;;;4989283;28;20215;-82
2023/05/17 07:43:28;;;;;;;6.63;2.90;;;10.20;99.90;;;;;;4990164;28;20314;-83
2023/05/17 07:45:54;;;;;;;3.50;0.40;;;10.10;99.90;;;;;;4965853;28;20223;-82
2023/05/17 07:48:20;;;;;;;2.47;0.63;;;10.20;99.90;;;;;;4999272;28;20226;-83
2023/05/17 07:50:46;;;;;;;0.97;0.80;;;10.30;99.90;;;;;;4982260;28;20579;-82
2023/05/17 07:53:12;;;;;;;1.17;0.60;;;10.50;99.90;;;;;;4981850;28;20277;-82
2023/05/17 07:55:37;;;;;;;1.37;0.97;;;10.60;99.90;;;;;;4981567;28;20219;-81
2023/05/17 07:58:03;;;;;;;0.73;0.73;;;10.80;99.90;;;;;;4997068;28;20676;-82
2023/05/17 08:00:29;;;;;;;2.10;0.80;;;11.00;99.90;;;;;;5013650;28;20393;-81
2023/05/17 08:02:56;;;;;;;3.27;0.80;;;11.70;99.90;;;;;;5000105;28;20226;-82
2023/05/17 08:05:22;;;;;;;9.60;1.23;;;11.80;99.90;;;;;;5015090;28;20236;-81
2023/05/17 08:07:47;;;;;;;0.73;0.73;;;12.50;99.90;;;;;;4989825;28;20752;-82
2023/05/17 08:10:13;;;;;;;1.83;1.03;;;12.10;99.90;;;;;;4997668;28;20211;-82
2023/05/17 08:12:39;;;;;;;6.27;0.87;;;11.90;99.90;;;;;;4997102;28;20202;-83
2023/05/17 08:15:05;;;;;;;1.27;0.87;;;11.50;99.90;;;;;;4998282;28;20565;-83
2023/05/17 08:17:31;;;;;;;0.30;0.30;;;11.20;99.90;;;;;;5015004;28;20305;-81
2023/05/17 08:19:56;;;;;;;2.13;0.60;;;11.20;99.90;;;;;;4982263;28;20268;-82
2023/05/17 08:22:22;;;;;;;1.63;1.53;;;11.30;99.90;;;;;;4998025;28;20231;-82
2023/05/17 08:24:48;;;;;;;0.50;0.50;;;11.20;99.90;;;;;;4994412;28;20182;-82
2023/05/17 08:27:14;;;;;;;2.00;0.87;;;11.50;99.90;;;;;;4960956;28;21245;-81
2023/05/17 08:29:39;;;;;;;0.60;0.30;;;11.60;99.90;;;;;;4964768;28;20240;-82
2023/05/17 08:32:06;;;;;;;0.47;0.47;;;11.70;99.90;;;;;;4979392;28;20330;-82
2023/05/17 08:34:31;;;;;;;4.07;0.67;;;11.90;99.90;;;;;;4970600;28;20223;-81
2023/05/17 08:36:57;;;;;;;1.27;0.60;;;11.90;99.90;;;;;;4983126;28;20712;-83
2023/05/17 08:39:23;;;;;;;1.33;0.60;;;11.80;99.90;;;;;;5000290;28;20191;-82
2023/05/17 08:41:48;;;;;;;0.60;0.60;;;12.20;99.90;;;;;;4981637;28;20281;-81
2023/05/17 08:44:15;;;;;;;1.30;0.73;;;12.30;99.90;;;;;;4981745;28;20226;-82
2023/05/17 08:46:43;;;;;;;0.93;0.50;;;12.00;99.90;;;;;;4998557;28;21040;-80
2023/05/17 08:49:11;;;;;;;0.50;0.50;;;11.80;99.90;;;;;;4990098;28;20243;-83
2023/05/17 08:51:38;;;;;;;4.63;0.70;;;12.10;99.90;;;;;;4963891;28;20191;-82
2023/05/17 08:54:07;;;;;;;0.50;0.33;;;12.50;99.90;;;;;;4973603;28;20181;-82
2023/05/17 08:56:35;;;;;;;3.23;0.57;;;13.10;99.90;;;;;;4965676;28;20232;-82
2023/05/17 08:59:04;;;;;;;3.20;0.50;;;12.10;99.90;;;;;;4963325;28;20233;-83
2023/05/17 09:01:30;;;;;;;0.63;0.60;;;11.70;99.90;;;;;;4964618;28;20632;-82
2023/05/17 09:03:58;;;;;;;2.70;0.60;;;11.50;99.90;;;;;;4965388;28;20590;-83
2023/05/17 09:06:23;;;;;;;0.83;0.80;;;11.90;99.90;;;;;;4972512;28;20807;-83
2023/05/17 09:08:57;;;;;;;0.63;0.63;;;12.70;99.90;;;;;;4980128;28;20310;-82
2023/05/17 09:11:31;;;;;;;2.23;1.10;;;13.70;99.90;;;;;;4997712;28;20814;-83
2023/05/17 09:14:02;;;;;;;1.60;1.20;;;15.00;99.90;;;;;;4998677;28;20349;-83
2023/05/17 09:16:35;;;;;;;2.03;0.77;;;15.30;99.90;;;;;;4981274;28;20579;-84
2023/05/17 09:19:02;;;;;;;3.43;1.37;;;14.00;99.90;;;;;;5001994;28;20286;-84
2023/05/17 09:21:31;;;;;;;2.17;0.63;;;12.90;99.90;;;;;;5015951;28;20441;-82
2023/05/17 09:24:00;;;;;;;5.87;1.27;;;13.60;99.90;;;;;;4999821;28;20223;-84
2023/05/17 09:26:43;;;;;;;2.83;0.90;;;13.40;99.90;;;;;;5032941;28;20617;-83
2023/05/17 09:29:14;;;;;;;2.43;0.73;;;13.10;99.90;;;;;;5001144;28;20229;-81
2023/05/17 09:31:41;;;;;;;2.73;0.80;;;12.90;99.90;;;;;;5000026;28;20318;-82
2023/05/17 09:34:07;;;;;;;3.23;0.87;;;12.70;99.90;;;;;;4998827;28;20231;-83
2023/05/17 09:36:41;;;;;;;2.40;0.63;;;12.60;99.90;;;;;;5002052;28;20232;-83
2023/05/17 09:39:10;;;;;;;2.10;0.80;;;12.70;99.90;;;;;;5003239;28;20578;-83
2023/05/17 09:41:45;;;;;;;1.57;1.03;;;13.00;99.90;;;;;;5001895;28;20210;-83
2023/05/17 09:44:12;;;;;;;1.73;1.63;;;14.10;99.90;;;;;;5001174;28;20269;-82
2023/05/17 09:46:43;;;;;;;2.20;1.10;;;13.80;99.90;;;;;;5003104;28;20219;-83
2023/05/17 09:49:09;;;;;;;3.43;1.10;;;13.90;99.90;;;;;;5001418;28;20239;-84
2023/05/17 09:51:43;;;;;;;0.80;0.73;;;13.20;99.90;;;;;;5001139;28;20257;-84
2023/05/17 09:54:09;;;;;;;5.10;0.57;;;13.20;99.90;;;;;;5002768;28;20180;-83
2023/05/17 09:56:35;;;;;;;1.57;1.00;;;13.30;99.90;;;;;;4968470;28;20329;-82
2023/05/17 09:59:02;;;;;;;11.60;0.77;;;12.90;99.90;;;;;;4984172;28;20247;-82
2023/05/17 10:01:29;;;;;;;1.00;1.00;;;12.70;99.90;;;;;;4993190;28;20215;-82
2023/05/17 10:04:00;;;;;;;1.90;1.20;;;12.20;99.90;;;;;;5002205;28;20231;-84
2023/05/17 10:06:28;;;;;;;1.67;1.27;;;12.30;99.90;;;;;;5001377;28;20184;-85
2023/05/17 10:08:57;;;;;;;3.10;0.47;;;11.90;99.90;;;;;;4999443;28;20231;-82
2023/05/17 10:11:33;;;;;;;0.80;0.80;;;12.10;99.90;;;;;;5000668;28;20306;-81
2023/05/17 10:14:21;;;;;;;3.20;0.73;;;12.00;99.90;;;;;;5000078;28;20310;-80
2023/05/17 10:16:48;;;;;;;2.93;1.57;;;12.20;99.90;;;;;;4986020;28;20646;-82
2023/05/17 10:19:15;;;;;;;1.27;0.87;;;12.10;99.90;;;;;;4973496;28;20228;-81
2023/05/17 10:21:42;;;;;;;4.00;0.80;;;12.30;99.90;;;;;;4996885;28;20184;-81
2023/05/17 10:24:09;;;;;;;2.57;0.93;;;12.20;99.90;;;;;;4968589;28;20761;-84
2023/05/17 10:26:35;;;;;;;1.00;0.87;;;12.00;99.90;;;;;;4954036;28;20306;-84
2023/05/17 10:29:02;;;;;;;0.93;0.83;;;12.20;99.90;;;;;;4967352;28;20331;-81
2023/05/17 10:31:32;;;;;;;1.03;0.37;;;12.60;99.90;;;;;;4980887;28;20219;-80
2023/05/17 10:34:00;;;;;;;1.47;1.33;;;12.30;99.90;;;;;;5000395;28;20597;-81
2023/05/17 10:36:27;;;;;;;4.93;0.67;;;12.20;99.90;;;;;;4999580;28;20314;-81
2023/05/17 10:38:54;;;;;;;13.77;2.53;;;12.10;99.90;;;;;;4999656;28;20234;-80
2023/05/17 10:41:23;;;;;;;0.30;0.30;;;11.70;99.90;;;;;;4999038;28;20691;-84
2023/05/17 10:43:50;;;;;;;2.43;0.97;;;11.70;99.90;;;;;;5000694;28;20230;-82
2023/05/17 10:46:21;;;;;;;0.60;0.60;;;11.60;99.90;;;;;;4999120;28;20234;-83
2023/05/17 10:48:49;;;;;;;4.83;0.50;;;11.70;99.90;;;;;;4995079;28;20226;-83
2023/05/17 10:51:24;;;;;;;0.80;0.77;;;12.00;99.90;;;;;;4962155;28;20688;-82
2023/05/17 10:54:04;;;;;;;3.30;0.80;;;12.90;99.90;;;;;;4967550;28;20481;-83
2023/05/17 10:56:31;;;;;;;0.70;0.70;;;12.70;99.90;;;;;;4965935;28;20237;-83
2023/05/17 10:59:20;;;;;;;4.03;1.60;;;12.50;99.90;;;;;;4968519;28;20220;-81
2023/05/17 11:02:12;;;;;;;1.27;0.60;;;12.80;99.90;;;;;;4968928;28;20754;-81
2023/05/17 11:04:43;;;;;;;1.03;0.77;;;12.60;99.90;;;;;;4969517;28;20247;-84
2023/05/17 11:07:15;;;;;;;9.33;1.17;;;12.70;99.90;;;;;;4976026;28;20243;-85
2023/05/17 11:09:45;;;;;;;3.13;0.50;;;12.60;99.90;;;;;;4974177;28;20216;-87
2023/05/17 11:12:13;;;;;;;0.63;0.63;;;12.40;99.90;;;;;;4982554;28;20184;-86
2023/05/17 11:14:57;;;;;;;0.70;0.67;;;12.90;99.90;;;;;;4997614;28;20721;-86
2023/05/17 11:17:34;;;;;;;0.50;0.27;;;12.70;99.90;;;;;;5006325;28;20220;-84
2023/05/17 11:20:13;;;;;;;0.37;0.37;;;12.40;99.90;;;;;;4980041;28;20266;-84
2023/05/17 11:22:42;;;;;;;0.30;0.30;;;12.20;99.90;;;;;;4992196;28;20262;-85
2023/05/17 11:25:10;;;;;;;0.50;0.50;;;12.40;99.90;;;;;;5003666;28;20227;-87
2023/05/17 11:27:44;;;;;;;2.67;0.70;;;12.00;99.90;;;;;;5003220;28;20522;-88
2023/05/17 11:30:20;;;;;;;0.70;0.70;;;12.30;99.90;;;;;;5002673;28;20191;-87
2023/05/17 11:32:51;;;;;;;2.37;0.90;;;12.30;99.90;;;;;;5017830;28;20286;-88
2023/05/17 11:35:25;;;;;;;0.60;0.50;;;12.30;99.90;;;;;;5004152;28;20262;-88
2023/05/17 11:37:53;;;;;;;0.90;0.53;;;12.10;99.90;;;;;;5001764;28;20644;-90
2023/05/17 11:40:28;;;;;;;1.37;0.90;;;12.50;99.90;;;;;;5018700;28;20377;-88
2023/05/17 11:43:30;;;;;;;0.63;0.43;;;13.20;99.90;;;;;;4992961;28;21011;-88
2023/05/17 11:46:00;;;;;;;1.90;0.80;;;12.90;99.90;;;;;;4911877;29;20232;-88
2023/05/17 11:48:28;;;;;;;2.77;1.03;;;12.70;99.90;;;;;;4973536;28;20231;-89
2023/05/17 11:50:57;;;;;;;2.10;0.70;;;12.70;99.90;;;;;;5002937;28;20230;-88
2023/05/17 11:53:26;;;;;;;1.77;0.83;;;12.70;99.90;;;;;;5002563;28;20235;-88
2023/05/17 11:55:52;;;;;;;1.70;0.50;;;12.60;99.90;;;;;;5001826;28;20780;-88
2023/05/17 11:58:27;;;;;;;6.87;1.03;;;12.50;99.90;;;;;;4984846;28;20256;-89
2023/05/17 12:00:55;;;;;;;0.67;0.67;;;12.70;99.90;;;;;;5001693;28;20222;-88
2023/05/17 12:03:26;;;;;;;3.80;0.80;;;13.10;99.90;;;;;;5019130;28;20572;-88
2023/05/17 12:06:11;;;;;;;2.70;0.90;;;13.10;99.90;;;;;;5003770;28;20237;-89
2023/05/17 12:08:41;;;;;;;5.07;1.30;;;13.30;99.90;;;;;;5003200;28;20227;-88
2023/05/17 12:11:11;;;;;;;1.37;0.77;;;13.20;99.90;;;;;;5002703;28;20246;-88
2023/05/17 12:13:40;;;;;;;2.40;0.63;;;13.40;99.90;;;;;;5003526;28;20230;-87
2023/05/17 12:16:12;;;;;;;0.50;0.50;;;13.10;99.90;;;;;;5002978;28;20754;-90
2023/05/17 12:18:40;;;;;;;3.43;1.37;;;13.10;99.90;;;;;;5002598;28;20183;-88
2023/05/17 12:21:08;;;;;;;0.60;0.60;;;13.20;99.90;;;;;;5020519;28;20230;-87
2023/05/17 12:23:38;;;;;;;1.13;0.40;;;13.40;99.90;;;;;;5001272;28;20220;-88
2023/05/17 12:26:09;;;;;;;6.00;1.10;;;13.60;99.90;;;;;;4981418;28;20226;-84
2023/05/17 12:28:37;;;;;;;0.40;0.40;;;13.70;99.90;;;;;;4976697;28;20231;-89
2023/05/17 12:31:06;;;;;;;5.80;1.23;;;13.40;99.90;;;;;;4985235;28;20221;-84
2023/05/17 12:33:40;;;;;;;5.33;1.00;;;13.30;99.90;;;;;;5000406;28;20346;-84
2023/05/17 12:36:08;;;;;;;3.43;0.80;;;12.70;99.90;;;;;;5000896;28;20182;-83
2023/05/17 12:38:35;;;;;;;1.83;0.73;;;12.40;99.90;;;;;;4999887;28;20226;-83
2023/05/17 12:41:03;;;;;;;0.40;0.40;;;12.90;99.90;;;;;;4997056;28;20754;-84
2023/05/17 12:43:31;;;;;;;1.57;1.07;;;12.70;99.90;;;;;;4987915;28;20907;-83
2023/05/17 12:46:12;;;;;;;0.30;0.30;;;12.90;99.90;;;;;;4968565;28;20314;-83
2023/05/17 12:48:40;;;;;;;0.40;0.40;;;12.30;99.90;;;;;;4975666;28;20204;-83
2023/05/17 12:51:11;;;;;;;1.07;0.73;;;12.40;99.90;;;;;;5019339;28;20216;-84
2023/05/17 12:53:48;;;;;;;1.23;0.90;;;13.20;99.90;;;;;;5003494;28;20254;-82
2023/05/17 12:56:16;;;;;;;5.30;0.87;;;13.10;99.90;;;;;;5002003;28;20987;-82